createdAt,value
2023-05-06T00:00:47.317Z,480.00
2023-05-06T00:01:47.165Z,480.00
2023-05-06T00:02:47.349Z,482.00
2023-05-06T00:03:47.560Z,483.00
2023-05-06T00:04:47.369Z,485.00
2023-05-06T00:05:47.165Z,484.00
2023-05-06T00:06:47.208Z,483.00
2023-05-06T00:07:47.202Z,482.00
2023-05-06T00:08:47.219Z,481.00
2023-05-06T00:09:47.189Z,481.00
2023-05-06T00:10:47.182Z,480.00
2023-05-06T00:11:47.190Z,480.00
2023-05-06T00:12:47.220Z,480.00
2023-05-06T00:13:47.250Z,483.00
2023-05-06T00:14:47.209Z,484.00
2023-05-06T00:15:47.218Z,483.00
2023-05-06T00:16:47.400Z,482.00
2023-05-06T00:17:47.202Z,487.00
2023-05-06T00:18:47.228Z,487.00
2023-05-06T00:19:47.179Z,485.00
2023-05-06T00:20:47.179Z,484.00
2023-05-06T00:21:47.179Z,484.00
2023-05-06T00:22:47.205Z,484.00
2023-05-06T00:23:47.187Z,484.00
2023-05-06T00:24:47.206Z,486.00
2023-05-06T00:25:47.192Z,484.00
2023-05-06T00:26:47.183Z,483.00
2023-05-06T00:27:47.192Z,484.00
2023-05-06T00:28:47.202Z,485.00
2023-05-06T00:29:47.156Z,488.00
2023-05-06T00:30:47.223Z,484.00
2023-05-06T00:31:47.282Z,484.00
2023-05-06T00:32:47.222Z,482.00
2023-05-06T00:33:47.230Z,481.00
2023-05-06T00:34:47.240Z,482.00
2023-05-06T00:35:47.280Z,482.00
2023-05-06T00:36:47.198Z,481.00
2023-05-06T00:37:47.226Z,484.00
2023-05-06T00:38:47.188Z,484.00
2023-05-06T00:39:47.206Z,481.00
2023-05-06T00:40:47.227Z,480.00
2023-05-06T00:41:47.226Z,477.00
2023-05-06T00:42:47.188Z,474.00
2023-05-06T00:43:47.198Z,476.00
2023-05-06T00:44:47.209Z,479.00
2023-05-06T00:45:47.245Z,480.00
2023-05-06T00:46:47.177Z,482.00
2023-05-06T00:47:47.201Z,480.00
2023-05-06T00:48:47.255Z,477.00
2023-05-06T00:49:47.198Z,480.00
2023-05-06T00:50:47.201Z,480.00
2023-05-06T00:51:47.181Z,482.00
2023-05-06T00:52:47.184Z,484.00
2023-05-06T00:53:47.207Z,486.00
2023-05-06T00:54:47.222Z,486.00
2023-05-06T00:55:47.195Z,486.00
2023-05-06T00:56:47.193Z,486.00
2023-05-06T00:57:47.203Z,483.00
2023-05-06T00:58:47.164Z,482.00
2023-05-06T00:59:47.220Z,481.00
2023-05-06T01:00:47.200Z,481.00
2023-05-06T01:01:47.176Z,481.00
2023-05-06T01:02:48.127Z,482.00
2023-05-06T01:03:47.335Z,481.00
2023-05-06T01:04:47.289Z,481.00
2023-05-06T01:05:47.205Z,483.00
2023-05-06T01:06:47.156Z,483.00
2023-05-06T01:07:47.176Z,481.00
2023-05-06T01:08:47.185Z,482.00
2023-05-06T01:09:47.209Z,484.00
2023-05-06T01:10:47.224Z,485.00
2023-05-06T01:11:47.246Z,486.00
2023-05-06T01:12:47.236Z,485.00
2023-05-06T01:13:47.211Z,483.00
2023-05-06T01:14:47.159Z,479.00
2023-05-06T01:15:47.214Z,477.00
2023-05-06T01:16:47.270Z,476.00
2023-05-06T01:17:47.280Z,478.00
2023-05-06T01:18:47.184Z,479.00
2023-05-06T01:19:47.182Z,479.00
2023-05-06T01:20:47.288Z,480.00
2023-05-06T01:21:47.254Z,481.00
2023-05-06T01:22:47.210Z,479.00
2023-05-06T01:23:47.213Z,480.00
2023-05-06T01:24:47.217Z,480.00
2023-05-06T01:25:47.214Z,479.00
2023-05-06T01:26:47.187Z,478.00
2023-05-06T01:27:47.186Z,477.00
2023-05-06T01:28:47.199Z,478.00
2023-05-06T01:29:47.214Z,480.00
2023-05-06T01:30:47.205Z,483.00
2023-05-06T01:31:47.217Z,484.00
2023-05-06T01:32:47.218Z,485.00
2023-05-06T01:33:47.240Z,486.00
2023-05-06T01:34:47.233Z,486.00
2023-05-06T01:35:47.211Z,485.00
2023-05-06T01:36:47.303Z,484.00
2023-05-06T01:37:47.254Z,481.00
2023-05-06T01:38:47.319Z,484.00
2023-05-06T01:39:47.274Z,486.00
2023-05-06T01:40:47.278Z,486.00
2023-05-06T01:41:47.223Z,485.00
2023-05-06T01:42:47.291Z,484.00
2023-05-06T01:43:47.259Z,482.00
2023-05-06T01:44:47.306Z,482.00
2023-05-06T01:45:47.251Z,483.00
2023-05-06T01:46:47.394Z,482.00
2023-05-06T01:47:47.291Z,482.00
2023-05-06T01:48:47.284Z,481.00
2023-05-06T01:49:47.284Z,484.00
2023-05-06T01:50:47.282Z,485.00
2023-05-06T01:51:47.356Z,484.00
2023-05-06T01:52:47.351Z,483.00
2023-05-06T01:53:47.303Z,483.00
2023-05-06T01:54:47.303Z,482.00
2023-05-06T01:55:47.272Z,481.00
2023-05-06T01:56:47.283Z,485.00
2023-05-06T01:57:47.289Z,485.00
2023-05-06T01:58:47.292Z,487.00
2023-05-06T01:59:47.306Z,484.00
2023-05-06T02:00:47.329Z,485.00
2023-05-06T02:01:47.364Z,485.00
2023-05-06T02:02:47.469Z,486.00
2023-05-06T02:03:47.495Z,486.00
2023-05-06T02:04:47.293Z,485.00
2023-05-06T02:05:47.332Z,483.00
2023-05-06T02:06:47.304Z,486.00
2023-05-06T02:07:47.300Z,484.00
2023-05-06T02:08:47.371Z,482.00
2023-05-06T02:09:47.309Z,482.00
2023-05-06T02:10:47.297Z,480.00
2023-05-06T02:11:47.329Z,482.00
2023-05-06T02:12:47.360Z,481.00
2023-05-06T02:13:47.353Z,481.00
2023-05-06T02:14:47.321Z,481.00
2023-05-06T02:15:47.408Z,481.00
2023-05-06T02:16:47.317Z,481.00
2023-05-06T02:17:47.371Z,480.00
2023-05-06T02:18:47.322Z,482.00
2023-05-06T02:19:47.343Z,482.00
2023-05-06T02:20:47.348Z,483.00
2023-05-06T02:21:47.353Z,482.00
2023-05-06T02:22:47.390Z,486.00
2023-05-06T02:23:47.369Z,485.00
2023-05-06T02:24:47.399Z,486.00
2023-05-06T02:25:47.380Z,485.00
2023-05-06T02:26:47.386Z,486.00
2023-05-06T02:27:47.375Z,485.00
2023-05-06T02:28:47.386Z,486.00
2023-05-06T02:29:47.393Z,484.00
2023-05-06T02:30:47.426Z,482.00
2023-05-06T02:31:47.448Z,483.00
2023-05-06T02:32:47.438Z,484.00
2023-05-06T02:33:47.376Z,483.00
2023-05-06T02:34:47.386Z,481.00
2023-05-06T02:35:47.439Z,480.00
2023-05-06T02:36:47.418Z,479.00
2023-05-06T02:37:47.412Z,478.00
2023-05-06T02:38:47.424Z,477.00
2023-05-06T02:39:47.430Z,474.00
2023-05-06T02:40:47.504Z,477.00
2023-05-06T02:41:47.412Z,476.00
2023-05-06T02:42:47.500Z,476.00
2023-05-06T02:43:47.427Z,478.00
2023-05-06T02:44:47.428Z,479.00
2023-05-06T02:45:47.472Z,481.00
2023-05-06T02:46:47.508Z,478.00
2023-05-06T02:47:47.436Z,479.00
2023-05-06T02:48:47.456Z,481.00
2023-05-06T02:49:47.442Z,481.00
2023-05-06T02:50:47.424Z,483.00
2023-05-06T02:51:47.400Z,483.00
2023-05-06T02:52:47.447Z,483.00
2023-05-06T02:53:47.514Z,483.00
2023-05-06T02:54:47.419Z,485.00
2023-05-06T02:55:47.426Z,487.00
2023-05-06T02:56:47.518Z,485.00
2023-05-06T02:57:47.456Z,486.00
2023-05-06T02:58:47.507Z,486.00
2023-05-06T02:59:47.495Z,483.00
2023-05-06T03:00:47.473Z,481.00
2023-05-06T03:01:47.508Z,481.00
2023-05-06T03:02:47.479Z,480.00
2023-05-06T03:03:47.491Z,480.00
2023-05-06T03:04:47.463Z,483.00
2023-05-06T03:05:47.576Z,481.00
2023-05-06T03:06:47.501Z,481.00
2023-05-06T03:07:47.486Z,480.00
2023-05-06T03:08:47.491Z,480.00
2023-05-06T03:09:47.501Z,481.00
2023-05-06T03:10:47.506Z,481.00
2023-05-06T03:11:47.514Z,482.00
2023-05-06T03:12:47.613Z,481.00
2023-05-06T03:13:47.537Z,481.00
2023-05-06T03:14:47.544Z,481.00
2023-05-06T03:15:47.539Z,482.00
2023-05-06T03:16:47.591Z,484.00
2023-05-06T03:17:47.601Z,488.00
2023-05-06T03:18:47.550Z,486.00
2023-05-06T03:19:47.587Z,487.00
2023-05-06T03:20:47.583Z,485.00
2023-05-06T03:21:47.611Z,486.00
2023-05-06T03:22:47.593Z,485.00
2023-05-06T03:23:47.604Z,482.00
2023-05-06T03:24:47.671Z,483.00
2023-05-06T03:25:47.663Z,485.00
2023-05-06T03:26:47.674Z,485.00
2023-05-06T03:27:47.651Z,489.00
2023-05-06T03:28:47.857Z,488.00
2023-05-06T03:29:47.653Z,488.00
2023-05-06T03:30:47.708Z,488.00
2023-05-06T03:31:47.736Z,485.00
2023-05-06T03:32:47.776Z,485.00
2023-05-06T03:33:47.728Z,487.00
2023-05-06T03:34:47.742Z,486.00
2023-05-06T03:35:47.747Z,483.00
2023-05-06T03:36:47.725Z,479.00
2023-05-06T03:37:47.759Z,478.00
2023-05-06T03:38:47.759Z,478.00
2023-05-06T03:39:47.781Z,479.00
2023-05-06T03:40:47.783Z,478.00
2023-05-06T03:41:47.793Z,479.00
2023-05-06T03:42:47.789Z,480.00
2023-05-06T03:43:47.841Z,482.00
2023-05-06T03:44:47.920Z,481.00
2023-05-06T03:45:47.876Z,482.00
2023-05-06T03:46:47.861Z,483.00
2023-05-06T03:47:48.347Z,482.00
2023-05-06T03:48:47.881Z,485.00
2023-05-06T03:49:47.886Z,483.00
2023-05-06T03:50:47.899Z,486.00
2023-05-06T03:51:47.893Z,487.00
2023-05-06T03:52:47.905Z,489.00
2023-05-06T03:53:47.975Z,488.00
2023-05-06T03:54:47.929Z,486.00
2023-05-06T03:55:47.974Z,483.00
2023-05-06T03:56:48.016Z,482.00
2023-05-06T03:57:47.989Z,482.00
2023-05-06T03:58:47.986Z,480.00
2023-05-06T03:59:48.057Z,483.00
2023-05-06T04:00:48.068Z,481.00
2023-05-06T04:01:48.053Z,477.00
2023-05-06T04:02:48.024Z,478.00
2023-05-06T04:03:48.136Z,477.00
2023-05-06T04:04:48.094Z,478.00
2023-05-06T04:05:48.081Z,478.00
2023-05-06T04:06:48.078Z,477.00
2023-05-06T04:07:48.083Z,480.00
2023-05-06T04:08:48.099Z,481.00
2023-05-06T04:09:48.092Z,484.00
2023-05-06T04:10:48.111Z,484.00
2023-05-06T04:11:48.139Z,485.00
2023-05-06T04:12:48.162Z,482.00
2023-05-06T04:13:48.152Z,484.00
2023-05-06T04:14:48.152Z,482.00
2023-05-06T04:15:48.240Z,484.00
2023-05-06T04:16:48.311Z,483.00
2023-05-06T04:17:48.243Z,481.00
2023-05-06T04:18:48.203Z,481.00
2023-05-06T04:19:48.227Z,481.00
2023-05-06T04:20:48.259Z,484.00
2023-05-06T04:21:48.205Z,483.00
2023-05-06T04:22:48.215Z,484.00
2023-05-06T04:23:48.273Z,484.00
2023-05-06T04:24:48.266Z,483.00
2023-05-06T04:25:48.293Z,480.00
2023-05-06T04:26:48.292Z,480.00
2023-05-06T04:27:48.280Z,481.00
2023-05-06T04:28:48.309Z,481.00
2023-05-06T04:29:48.314Z,483.00
2023-05-06T04:30:48.300Z,483.00
2023-05-06T04:31:48.330Z,485.00
2023-05-06T04:32:48.409Z,486.00
2023-05-06T04:33:48.320Z,488.00
2023-05-06T04:34:48.344Z,490.00
2023-05-06T04:35:48.358Z,489.00
2023-05-06T04:36:48.365Z,488.00
2023-05-06T04:37:48.374Z,488.00
2023-05-06T04:38:48.414Z,490.00
2023-05-06T04:39:48.405Z,489.00
2023-05-06T04:40:48.407Z,489.00
2023-05-06T04:41:48.436Z,489.00
2023-05-06T04:42:48.434Z,489.00
2023-05-06T04:43:48.432Z,490.00
2023-05-06T04:44:48.440Z,490.00
2023-05-06T04:45:48.524Z,493.00
2023-05-06T04:46:48.503Z,494.00
2023-05-06T04:47:48.563Z,496.00
2023-05-06T04:48:48.488Z,495.00
2023-05-06T04:49:48.523Z,495.00
2023-05-06T04:50:48.519Z,493.00
2023-05-06T04:51:48.524Z,493.00
2023-05-06T04:52:48.563Z,489.00
2023-05-06T04:53:48.513Z,491.00
2023-05-06T04:54:48.646Z,491.00
2023-05-06T04:55:48.584Z,491.00
2023-05-06T04:56:48.554Z,490.00
2023-05-06T04:57:48.563Z,492.00
2023-05-06T04:58:48.573Z,492.00
2023-05-06T04:59:48.611Z,489.00
2023-05-06T05:00:48.615Z,486.00
2023-05-06T05:01:48.688Z,485.00
2023-05-06T05:02:48.640Z,484.00
2023-05-06T05:03:48.631Z,486.00
2023-05-06T05:04:48.641Z,486.00
2023-05-06T05:05:48.616Z,486.00
2023-05-06T05:06:48.675Z,486.00
2023-05-06T05:07:48.662Z,486.00
2023-05-06T05:08:48.694Z,487.00
2023-05-06T05:09:48.755Z,487.00
2023-05-06T05:10:48.730Z,488.00
2023-05-06T05:11:48.741Z,489.00
2023-05-06T05:12:48.773Z,490.00
2023-05-06T05:13:48.757Z,488.00
2023-05-06T05:14:48.758Z,486.00
2023-05-06T05:15:48.757Z,485.00
2023-05-06T05:16:48.793Z,485.00
2023-05-06T05:17:48.799Z,487.00
2023-05-06T05:18:48.782Z,490.00
2023-05-06T05:19:48.772Z,490.00
2023-05-06T05:20:48.800Z,490.00
2023-05-06T05:21:48.818Z,490.00
2023-05-06T05:22:48.797Z,489.00
2023-05-06T05:23:48.807Z,488.00
2023-05-06T05:24:48.799Z,490.00
2023-05-06T05:25:48.832Z,491.00
2023-05-06T05:26:48.813Z,491.00
2023-05-06T05:27:48.916Z,492.00
2023-05-06T05:28:48.916Z,491.00
2023-05-06T05:29:48.911Z,492.00
2023-05-06T05:30:48.940Z,492.00
2023-05-06T05:31:48.980Z,491.00
2023-05-06T05:32:49.016Z,488.00
2023-05-06T05:33:48.909Z,487.00
2023-05-06T05:34:48.957Z,489.00
2023-05-06T05:35:48.953Z,490.00
2023-05-06T05:36:49.020Z,488.00
2023-05-06T05:37:48.976Z,488.00
2023-05-06T05:38:48.937Z,491.00
2023-05-06T05:39:48.998Z,490.00
2023-05-06T05:40:48.997Z,490.00
2023-05-06T05:41:48.975Z,488.00
2023-05-06T05:42:48.963Z,488.00
2023-05-06T05:43:49.014Z,488.00
2023-05-06T05:44:48.970Z,488.00
2023-05-06T05:45:49.021Z,488.00
2023-05-06T05:46:49.122Z,486.00
2023-05-06T05:47:49.071Z,489.00
2023-05-06T05:48:48.985Z,488.00
2023-05-06T05:49:49.056Z,490.00
2023-05-06T05:50:49.056Z,491.00
2023-05-06T05:51:49.062Z,493.00
2023-05-06T05:52:49.067Z,494.00
2023-05-06T05:53:49.010Z,497.00
2023-05-06T05:54:49.014Z,495.00
2023-05-06T05:55:49.039Z,496.00
2023-05-06T05:56:49.239Z,494.00
2023-05-06T05:57:49.036Z,491.00
2023-05-06T05:58:49.104Z,491.00
2023-05-06T05:59:49.071Z,490.00
2023-05-06T06:00:49.047Z,490.00
2023-05-06T06:01:49.079Z,489.00
2023-05-06T06:02:49.142Z,491.00
2023-05-06T06:03:49.216Z,492.00
2023-05-06T06:04:49.133Z,493.00
2023-05-06T06:05:49.063Z,496.00
2023-05-06T06:06:49.090Z,497.00
2023-05-06T06:07:49.080Z,495.00
2023-05-06T06:08:49.128Z,495.00
2023-05-06T06:09:49.108Z,492.00
2023-05-06T06:10:49.050Z,490.00
2023-05-06T06:11:49.096Z,484.00
2023-05-06T06:12:49.179Z,485.00
2023-05-06T06:13:49.077Z,486.00
2023-05-06T06:14:49.090Z,488.00
2023-05-06T06:15:49.170Z,487.00
2023-05-06T06:16:49.092Z,487.00
2023-05-06T06:17:49.189Z,488.00
2023-05-06T06:18:49.150Z,490.00
2023-05-06T06:19:49.121Z,490.00
2023-05-06T06:21:49.103Z,488.00
2023-05-06T06:22:49.119Z,487.00
2023-05-06T06:23:49.111Z,487.00
2023-05-06T06:24:49.168Z,487.00
2023-05-06T06:25:49.083Z,488.00
2023-05-06T06:26:49.143Z,490.00
2023-05-06T06:27:49.098Z,490.00
2023-05-06T06:28:49.083Z,489.00
2023-05-06T06:29:49.119Z,490.00
2023-05-06T06:30:49.095Z,490.00
2023-05-06T06:31:49.146Z,492.00
2023-05-06T06:32:49.174Z,493.00
2023-05-06T06:33:49.096Z,493.00
2023-05-06T06:34:49.152Z,494.00
2023-05-06T06:35:49.101Z,492.00
2023-05-06T06:36:49.091Z,490.00
2023-05-06T06:37:49.107Z,491.00
2023-05-06T06:38:49.118Z,490.00
2023-05-06T06:39:49.203Z,492.00
2023-05-06T06:40:49.245Z,488.00
2023-05-06T06:41:49.097Z,488.00
2023-05-06T06:42:49.100Z,486.00
2023-05-06T06:43:49.110Z,484.00
2023-05-06T06:44:49.111Z,484.00
2023-05-06T06:45:49.103Z,481.00
2023-05-06T06:46:49.132Z,484.00
2023-05-06T06:47:49.171Z,484.00
2023-05-06T06:48:49.097Z,485.00
2023-05-06T06:49:49.156Z,485.00
2023-05-06T06:50:49.131Z,484.00
2023-05-06T06:51:49.107Z,487.00
2023-05-06T06:52:49.097Z,486.00
2023-05-06T06:53:49.156Z,486.00
2023-05-06T06:54:49.124Z,485.00
2023-05-06T06:55:49.125Z,487.00
2023-05-06T06:56:49.152Z,484.00
2023-05-06T06:57:49.096Z,483.00
2023-05-06T06:58:49.874Z,482.00
2023-05-06T06:59:49.118Z,481.00
2023-05-06T07:00:49.147Z,482.00
2023-05-06T07:01:49.121Z,481.00
2023-05-06T07:02:49.136Z,481.00
2023-05-06T07:03:49.135Z,481.00
2023-05-06T07:04:49.104Z,482.00
2023-05-06T07:05:49.153Z,485.00
2023-05-06T07:06:49.159Z,483.00
2023-05-06T07:07:49.184Z,483.00
2023-05-06T07:08:49.183Z,484.00
2023-05-06T07:09:49.179Z,481.00
2023-05-06T07:10:49.185Z,481.00
2023-05-06T07:11:49.203Z,479.00
2023-05-06T07:12:49.212Z,480.00
2023-05-06T07:13:49.251Z,481.00
2023-05-06T07:14:49.249Z,483.00
2023-05-06T07:15:49.306Z,484.00
2023-05-06T07:16:51.370Z,484.00
2023-05-06T07:17:49.409Z,483.00
2023-05-06T07:18:49.345Z,484.00
2023-05-06T07:19:49.397Z,485.00
2023-05-06T07:20:49.445Z,485.00
2023-05-06T07:21:49.536Z,484.00
2023-05-06T07:22:49.580Z,485.00
2023-05-06T07:23:49.671Z,482.00
2023-05-06T07:24:49.712Z,482.00
2023-05-06T07:25:49.814Z,482.00
2023-05-06T07:26:49.849Z,484.00
2023-05-06T07:27:49.922Z,485.00
2023-05-06T07:28:50.031Z,485.00
2023-05-06T07:29:50.040Z,485.00
2023-05-06T07:30:50.129Z,484.00
2023-05-06T07:31:50.135Z,485.00
2023-05-06T07:32:50.283Z,485.00
2023-05-06T07:33:50.278Z,482.00
2023-05-06T07:34:50.311Z,482.00
2023-05-06T07:35:50.395Z,481.00
2023-05-06T07:36:50.426Z,480.00
2023-05-06T07:37:50.492Z,483.00
2023-05-06T07:38:50.481Z,482.00
2023-05-06T07:39:50.534Z,482.00
2023-05-06T07:40:50.618Z,484.00
2023-05-06T07:41:50.622Z,485.00
2023-05-06T07:42:50.661Z,486.00
2023-05-06T07:43:50.729Z,485.00
2023-05-06T07:44:50.959Z,486.00
2023-05-06T07:45:50.816Z,487.00
2023-05-06T07:46:50.868Z,488.00
2023-05-06T07:47:50.882Z,487.00
2023-05-06T07:48:50.889Z,488.00
2023-05-06T07:49:50.902Z,487.00
2023-05-06T07:50:50.874Z,487.00
2023-05-06T07:51:50.939Z,486.00
2023-05-06T07:52:50.979Z,488.00
2023-05-06T07:53:50.933Z,490.00
2023-05-06T07:54:50.961Z,491.00
2023-05-06T07:55:51.021Z,490.00
2023-05-06T07:56:50.988Z,490.00
2023-05-06T07:57:50.993Z,490.00
2023-05-06T07:58:51.043Z,488.00
2023-05-06T07:59:51.162Z,484.00
2023-05-06T08:00:51.099Z,487.00
2023-05-06T08:01:51.067Z,490.00
2023-05-06T08:02:51.133Z,489.00
2023-05-06T08:03:51.286Z,490.00
2023-05-06T08:04:51.986Z,491.00
2023-05-06T08:05:51.089Z,492.00
2023-05-06T08:06:51.092Z,492.00
2023-05-06T08:07:51.143Z,490.00
2023-05-06T08:08:51.142Z,489.00
2023-05-06T08:09:51.169Z,491.00
2023-05-06T08:10:51.158Z,489.00
2023-05-06T08:11:51.199Z,491.00
2023-05-06T08:12:51.222Z,489.00
2023-05-06T08:13:51.211Z,489.00
2023-05-06T08:14:51.206Z,489.00
2023-05-06T08:15:51.288Z,485.00
2023-05-06T08:16:51.323Z,485.00
2023-05-06T08:17:51.265Z,483.00
2023-05-06T08:18:51.246Z,479.00
2023-05-06T08:19:51.265Z,478.00
2023-05-06T08:20:51.316Z,478.00
2023-05-06T08:21:51.273Z,481.00
2023-05-06T08:22:51.314Z,484.00
2023-05-06T08:23:51.280Z,485.00
2023-05-06T08:24:51.278Z,485.00
2023-05-06T08:25:51.268Z,486.00
2023-05-06T08:26:51.297Z,484.00
2023-05-06T08:27:51.287Z,485.00
2023-05-06T08:28:51.305Z,486.00
2023-05-06T08:29:51.377Z,487.00
2023-05-06T08:30:51.464Z,488.00
2023-05-06T08:31:51.448Z,485.00
2023-05-06T08:32:51.490Z,487.00
2023-05-06T08:33:54.353Z,489.00
2023-05-06T08:34:51.439Z,489.00
2023-05-06T08:35:51.454Z,489.00
2023-05-06T08:36:51.432Z,490.00
2023-05-06T08:37:51.427Z,488.00
2023-05-06T08:38:51.417Z,487.00
2023-05-06T08:39:51.428Z,488.00
2023-05-06T08:40:51.372Z,489.00
2023-05-06T08:41:51.372Z,490.00
2023-05-06T08:42:51.365Z,490.00
2023-05-06T08:43:51.334Z,493.00
2023-05-06T08:44:51.403Z,493.00
2023-05-06T08:45:51.409Z,492.00
2023-05-06T08:46:51.365Z,490.00
2023-05-06T08:47:51.367Z,489.00
2023-05-06T08:48:51.458Z,488.00
2023-05-06T08:49:51.347Z,486.00
2023-05-06T08:50:51.329Z,486.00
2023-05-06T08:51:51.347Z,486.00
2023-05-06T08:52:51.320Z,485.00
2023-05-06T08:53:51.324Z,485.00
2023-05-06T08:54:51.302Z,484.00
2023-05-06T08:55:51.349Z,483.00
2023-05-06T08:56:51.295Z,485.00
2023-05-06T08:57:51.304Z,485.00
2023-05-06T08:58:51.285Z,486.00
2023-05-06T08:59:51.250Z,486.00
2023-05-06T09:00:51.266Z,485.00
2023-05-06T09:01:51.268Z,482.00
2023-05-06T09:02:51.411Z,477.00
2023-05-06T09:03:51.289Z,478.00
2023-05-06T09:04:51.395Z,479.00
2023-05-06T09:05:51.227Z,478.00
2023-05-06T09:06:51.224Z,479.00
2023-05-06T09:07:51.252Z,479.00
2023-05-06T09:08:51.254Z,480.00
2023-05-06T09:09:51.217Z,480.00
2023-05-06T09:10:51.238Z,479.00
2023-05-06T09:11:51.196Z,478.00
2023-05-06T09:12:51.249Z,478.00
2023-05-06T09:13:51.191Z,483.00
2023-05-06T09:14:51.202Z,483.00
2023-05-06T09:15:51.194Z,482.00
2023-05-06T09:16:51.224Z,480.00
2023-05-06T09:17:51.247Z,476.00
2023-05-06T09:18:51.175Z,473.00
2023-05-06T09:19:51.189Z,472.00
2023-05-06T09:20:51.132Z,472.00
2023-05-06T09:21:51.149Z,474.00
2023-05-06T09:22:51.144Z,473.00
2023-05-06T09:23:51.150Z,473.00
2023-05-06T09:24:51.106Z,471.00
2023-05-06T09:25:51.140Z,474.00
2023-05-06T09:26:51.136Z,476.00
2023-05-06T09:27:51.129Z,477.00
2023-05-06T09:28:51.088Z,476.00
2023-05-06T09:29:51.080Z,475.00
2023-05-06T09:30:51.074Z,477.00
2023-05-06T09:31:51.092Z,480.00
2023-05-06T09:32:51.078Z,482.00
2023-05-06T09:33:51.071Z,483.00
2023-05-06T09:34:51.052Z,481.00
2023-05-06T09:35:51.027Z,480.00
2023-05-06T09:36:51.156Z,480.00
2023-05-06T09:37:51.051Z,480.00
2023-05-06T09:38:51.012Z,480.00
2023-05-06T09:39:51.013Z,480.00
2023-05-06T09:40:51.024Z,479.00
2023-05-06T09:41:51.024Z,479.00
2023-05-06T09:42:51.032Z,480.00
2023-05-06T09:43:51.001Z,479.00
2023-05-06T09:44:50.984Z,480.00
2023-05-06T09:45:50.972Z,482.00
2023-05-06T09:46:51.015Z,482.00
2023-05-06T09:47:50.968Z,482.00
2023-05-06T09:48:50.971Z,486.00
2023-05-06T09:49:50.943Z,488.00
2023-05-06T09:50:50.920Z,485.00
2023-05-06T09:51:50.933Z,482.00
2023-05-06T09:52:50.996Z,480.00
2023-05-06T09:53:50.949Z,483.00
2023-05-06T09:54:50.911Z,483.00
2023-05-06T09:55:50.905Z,487.00
2023-05-06T09:56:50.924Z,486.00
2023-05-06T09:57:50.928Z,484.00
2023-05-06T09:58:50.933Z,484.00
2023-05-06T09:59:50.888Z,483.00
2023-05-06T10:00:50.880Z,483.00
2023-05-06T10:01:50.923Z,484.00
2023-05-06T10:02:50.985Z,483.00
2023-05-06T10:03:50.973Z,480.00
2023-05-06T10:04:51.348Z,485.00
2023-05-06T10:05:50.898Z,483.00
2023-05-06T10:06:50.844Z,480.00
2023-05-06T10:07:50.822Z,477.00
2023-05-06T10:08:50.893Z,475.00
2023-05-06T10:09:50.821Z,475.00
2023-05-06T10:10:50.818Z,476.00
2023-05-06T10:11:50.824Z,478.00
2023-05-06T10:12:50.849Z,477.00
2023-05-06T10:13:50.790Z,477.00
2023-05-06T10:14:50.770Z,477.00
2023-05-06T10:15:50.852Z,475.00
2023-05-06T10:16:50.787Z,474.00
2023-05-06T10:17:50.765Z,474.00
2023-05-06T10:18:50.721Z,473.00
2023-05-06T10:19:50.720Z,476.00
2023-05-06T10:20:50.751Z,476.00
2023-05-06T10:21:50.727Z,476.00
2023-05-06T10:22:50.736Z,476.00
2023-05-06T10:23:50.753Z,475.00
2023-05-06T10:24:50.801Z,477.00
2023-05-06T10:25:50.706Z,476.00
2023-05-06T10:26:50.729Z,478.00
2023-05-06T10:27:50.721Z,474.00
2023-05-06T10:28:50.683Z,476.00
2023-05-06T10:29:50.652Z,476.00
2023-05-06T10:30:50.671Z,477.00
2023-05-06T10:31:50.738Z,477.00
2023-05-06T10:32:50.733Z,478.00
2023-05-06T10:33:50.696Z,479.00
2023-05-06T10:34:50.671Z,479.00
2023-05-06T10:35:50.673Z,481.00
2023-05-06T10:36:50.678Z,485.00
2023-05-06T10:37:50.686Z,484.00
2023-05-06T10:38:50.632Z,482.00
2023-05-06T10:39:50.616Z,482.00
2023-05-06T10:40:50.746Z,484.00
2023-05-06T10:41:50.780Z,484.00
2023-05-06T10:42:50.822Z,484.00
2023-05-06T10:43:50.856Z,484.00
2023-05-06T10:44:50.896Z,485.00
2023-05-06T10:45:50.996Z,486.00
2023-05-06T10:46:51.038Z,484.00
2023-05-06T10:47:51.175Z,487.00
2023-05-06T10:48:51.155Z,487.00
2023-05-06T10:49:51.225Z,486.00
2023-05-06T10:50:51.295Z,487.00
2023-05-06T10:51:51.390Z,485.00
2023-05-06T10:52:51.413Z,489.00
2023-05-06T10:53:51.471Z,488.00
2023-05-06T10:54:51.525Z,488.00
2023-05-06T10:55:51.557Z,487.00
2023-05-06T10:56:51.699Z,488.00
2023-05-06T10:57:51.691Z,486.00
2023-05-06T10:58:51.752Z,485.00
2023-05-06T10:59:51.848Z,485.00
2023-05-06T11:00:51.928Z,486.00
2023-05-06T11:01:51.917Z,484.00
2023-05-06T11:02:52.068Z,484.00
2023-05-06T11:03:52.088Z,486.00
2023-05-06T11:04:52.127Z,487.00
2023-05-06T11:05:52.186Z,485.00
2023-05-06T11:06:52.223Z,483.00
2023-05-06T11:07:52.296Z,482.00
2023-05-06T11:08:52.343Z,480.00
2023-05-06T11:09:52.430Z,480.00
2023-05-06T11:10:52.445Z,477.00
2023-05-06T11:11:52.548Z,478.00
2023-05-06T11:12:52.892Z,477.00
2023-05-06T11:13:52.625Z,477.00
2023-05-06T11:14:52.703Z,478.00
2023-05-06T11:15:52.793Z,474.00
2023-05-06T11:16:52.861Z,474.00
2023-05-06T11:17:52.944Z,473.00
2023-05-06T11:18:52.950Z,478.00
2023-05-06T11:19:53.007Z,479.00
2023-05-06T11:20:53.056Z,477.00
2023-05-06T11:21:53.124Z,479.00
2023-05-06T11:22:53.172Z,479.00
2023-05-06T11:23:53.246Z,480.00
2023-05-06T11:24:53.294Z,478.00
2023-05-06T11:25:53.356Z,476.00
2023-05-06T11:26:53.404Z,476.00
2023-05-06T11:27:53.484Z,476.00
2023-05-06T11:28:53.651Z,475.00
2023-05-06T11:29:53.589Z,473.00
2023-05-06T11:30:53.680Z,472.00
2023-05-06T11:31:53.662Z,471.00
2023-05-06T11:32:53.805Z,471.00
2023-05-06T11:33:53.831Z,478.00
2023-05-06T11:34:53.875Z,478.00
2023-05-06T11:35:53.944Z,477.00
2023-05-06T11:36:53.988Z,476.00
2023-05-06T11:37:54.092Z,477.00
2023-05-06T11:38:54.150Z,477.00
2023-05-06T11:39:54.191Z,479.00
2023-05-06T11:40:54.206Z,479.00
2023-05-06T11:41:54.280Z,480.00
2023-05-06T11:42:54.334Z,476.00
2023-05-06T11:43:54.349Z,475.00
2023-05-06T11:44:54.451Z,477.00
2023-05-06T11:45:54.556Z,478.00
2023-05-06T11:46:54.564Z,478.00
2023-05-06T11:47:54.694Z,480.00
2023-05-06T11:48:54.655Z,478.00
2023-05-06T11:49:54.746Z,478.00
2023-05-06T11:50:54.759Z,479.00
2023-05-06T11:51:54.873Z,479.00
2023-05-06T11:52:54.876Z,477.00
2023-05-06T11:53:54.901Z,478.00
2023-05-06T11:54:54.985Z,479.00
2023-05-06T11:55:55.014Z,481.00
2023-05-06T11:56:55.116Z,481.00
2023-05-06T11:57:55.151Z,480.00
2023-05-06T11:58:55.226Z,480.00
2023-05-06T11:59:55.269Z,483.00
2023-05-06T12:00:55.376Z,481.00
2023-05-06T12:01:55.337Z,482.00
2023-05-06T12:02:55.537Z,479.00
2023-05-06T12:03:55.572Z,479.00
2023-05-06T12:04:55.514Z,481.00
2023-05-06T12:05:55.593Z,483.00
2023-05-06T12:06:55.648Z,482.00
2023-05-06T12:07:55.694Z,479.00
2023-05-06T12:08:55.748Z,479.00
2023-05-06T12:09:55.760Z,479.00
2023-05-06T12:10:55.845Z,479.00
2023-05-06T12:11:55.917Z,480.00
2023-05-06T12:12:56.047Z,481.00
2023-05-06T12:13:55.990Z,481.00
2023-05-06T12:14:56.041Z,483.00
2023-05-06T12:15:56.102Z,482.00
2023-05-06T12:16:56.255Z,479.00
2023-05-06T12:17:56.257Z,479.00
2023-05-06T12:18:56.222Z,478.00
2023-05-06T12:19:56.289Z,478.00
2023-05-06T12:20:56.329Z,478.00
2023-05-06T12:21:56.353Z,479.00
2023-05-06T12:22:56.400Z,477.00
2023-05-06T12:23:56.560Z,479.00
2023-05-06T12:24:56.468Z,476.00
2023-05-06T12:25:56.527Z,475.00
2023-05-06T12:26:56.564Z,477.00
2023-05-06T12:27:57.958Z,478.00
2023-05-06T12:28:56.655Z,480.00
2023-05-06T12:29:56.698Z,480.00